Time;durP1;ratioP1;P1;durP2;ratioP2;P2;SDS_P1;SDS_P2;PMS_P1;PMS_P2;Temp;Humidity;BMP_temperature;BMP_pressure;BME280_temperature;BME280_humidity;BME280_pressure;Samples;Min_cycle;Max_cycle;Signal;HPM_P1;HPM_P2
2022/04/19 00:01:00;;;;;;;10.27;6.50;;;;;;;4.75;100.00;97137.91;1790368;80;21031;-73
2022/04/19 00:03:28;;;;;;;9.03;6.23;;;;;;;4.72;100.00;97126.27;1790070;80;21077;-74
2022/04/19 00:05:57;;;;;;;10.67;6.50;;;;;;;4.69;100.00;97128.85;1779195;81;21062;-73
2022/04/19 00:08:24;;;;;;;10.63;6.37;;;;;;;4.66;100.00;97121.74;1779247;81;21003;-70
2022/04/19 00:10:52;;;;;;;8.77;6.20;;;;;;;4.64;100.00;97132.66;1779482;81;21026;-74
2022/04/19 00:13:21;;;;;;;9.67;5.73;;;;;;;4.62;100.00;97135.20;1779442;81;21031;-73
2022/04/19 00:15:49;;;;;;;10.47;6.23;;;;;;;4.60;100.00;97138.61;1779431;81;21117;-74
2022/04/19 00:18:19;;;;;;;10.47;6.13;;;;;;;4.62;100.00;97130.70;1779406;81;21023;-74
2022/04/19 00:20:47;;;;;;;10.03;6.60;;;;;;;4.58;100.00;97121.94;1779336;81;21082;-74
2022/04/19 00:23:15;;;;;;;8.83;6.20;;;;;;;4.55;100.00;97117.30;1779297;81;21488;-72
2022/04/19 00:25:48;;;;;;;9.63;5.90;;;;;;;4.50;100.00;97113.08;1779015;81;21035;-75
2022/04/19 00:28:15;;;;;;;9.17;6.20;;;;;;;4.50;100.00;97117.09;1793855;78;20987;-75
2022/04/19 00:30:43;;;;;;;10.37;6.03;;;;;;;4.50;100.00;97120.29;1815720;79;21002;-73
2022/04/19 00:33:12;;;;;;;9.40;5.97;;;;;;;4.48;100.00;97115.14;1811340;79;21453;-74
2022/04/19 00:35:39;;;;;;;8.17;5.60;;;;;;;4.48;100.00;97113.80;1753348;81;21084;-74
2022/04/19 00:38:06;;;;;;;10.47;6.20;;;;;;;4.47;100.00;97118.83;1776999;81;20987;-74
2022/04/19 00:40:35;;;;;;;7.87;5.70;;;;;;;4.48;100.00;97115.14;1744839;81;21039;-74
2022/04/19 00:43:02;;;;;;;8.87;6.10;;;;;;;4.48;100.00;97116.47;1752383;81;21062;-74
2022/04/19 00:45:34;;;;;;;9.60;6.20;;;;;;;4.49;100.00;97107.40;1752319;82;21043;-73
2022/04/19 00:48:02;;;;;;;10.47;6.40;;;;;;;4.47;100.00;97108.12;1752682;82;21026;-75
2022/04/19 00:50:31;;;;;;;7.77;5.70;;;;;;;4.47;100.00;97100.62;1727323;82;21027;-73
2022/04/19 00:53:01;;;;;;;9.50;6.37;;;;;;;4.45;100.00;97106.70;1752447;82;21061;-75
2022/04/19 00:55:29;;;;;;;11.13;5.77;;;;;;;4.45;100.00;97100.00;1752279;82;21035;-74
2022/04/19 00:57:59;;;;;;;10.47;6.23;;;;;;;4.41;100.00;97091.56;1752522;82;20999;-72
2022/04/19 01:00:26;;;;;;;8.40;6.03;;;;;;;4.37;100.00;97091.64;1727036;82;21354;-72
2022/04/19 01:03:09;;;;;;;7.58;5.60;;;;;;;4.35;100.00;97087.83;1752674;82;21519;-72
2022/04/19 01:05:38;;;;;;;8.23;6.10;;;;;;;4.35;100.00;97079.80;1710135;83;21102;-75
2022/04/19 01:08:08;;;;;;;10.67;6.40;;;;;;;4.34;100.00;97083.52;1709079;83;21078;-72
2022/04/19 01:10:38;;;;;;;7.80;5.80;;;;;;;4.37;100.00;97084.95;1731705;83;21554;-72
2022/04/19 01:15:41;;;;;;;9.13;6.00;;;;;;;4.35;100.00;97086.48;1661638;86;21131;-73
2022/04/19 01:18:09;;;;;;;9.07;6.27;;;;;;;4.37;100.00;97067.56;1661813;86;21574;-74
2022/04/19 01:20:38;;;;;;;7.93;5.73;;;;;;;4.40;100.00;97071.70;1661662;86;21121;-74
2022/04/19 01:23:09;;;;;;;8.80;5.30;;;;;;;4.38;100.00;97068.70;1661727;86;21050;-74
2022/04/19 01:25:37;;;;;;;8.23;5.60;;;;;;;4.41;100.00;97071.98;1661681;86;21104;-74
2022/04/19 01:28:06;;;;;;;8.50;5.30;;;;;;;4.42;100.00;97081.16;1661479;86;21026;-74
2022/04/19 01:30:35;;;;;;;9.27;6.00;;;;;;;4.46;100.00;97078.89;1661476;85;21069;-73
2022/04/19 01:33:02;;;;;;;8.70;5.47;;;;;;;4.50;100.00;97064.09;1661017;86;21069;-73
2022/04/19 01:35:30;;;;;;;8.13;5.40;;;;;;;4.50;100.00;97047.52;1661568;85;21018;-73
2022/04/19 01:37:59;;;;;;;8.60;5.30;;;;;;;4.50;100.00;96987.31;1662710;86;21065;-73
2022/04/19 01:40:38;;;;;;;6.73;4.93;;;;;;;4.49;100.00;96982.16;1662555;86;21284;-74
2022/04/19 01:43:09;;;;;;;7.93;5.43;;;;;;;4.49;100.00;96996.88;1661954;85;21092;-72
2022/04/19 01:45:43;;;;;;;8.23;5.20;;;;;;;4.49;100.00;96991.53;1661803;86;21076;-72
2022/04/19 01:48:13;;;;;;;7.23;4.80;;;;;;;4.50;100.00;96983.30;1661846;86;21033;-74
2022/04/19 01:50:42;;;;;;;7.70;5.20;;;;;;;4.50;100.00;96990.52;1662077;86;21093;-74
2022/04/19 01:53:09;;;;;;;8.10;5.33;;;;;;;4.52;100.00;96982.57;1699378;83;21574;-73
2022/04/19 01:55:37;;;;;;;8.33;4.87;;;;;;;4.54;100.00;96985.05;1731201;83;21026;-73
2022/04/19 01:58:06;;;;;;;6.83;4.73;;;;;;;4.56;100.00;96980.30;1728267;83;21046;-73
2022/04/19 02:00:35;;;;;;;6.50;4.70;;;;;;;4.56;100.00;96985.13;1728096;83;21014;-74
2022/04/19 02:03:03;;;;;;;7.97;5.57;;;;;;;4.56;100.00;96985.13;1731622;83;21094;-73
2022/04/19 02:05:31;;;;;;;8.63;5.30;;;;;;;4.60;100.00;96978.03;1732406;80;21025;-74
2022/04/19 02:08:00;;;;;;;8.27;5.10;;;;;;;4.59;100.00;96965.70;1733076;81;21045;-73
2022/04/19 02:10:28;;;;;;;7.53;5.30;;;;;;;4.60;100.00;96974.02;1733127;81;21443;-74
2022/04/19 02:12:57;;;;;;;6.83;4.90;;;;;;;4.62;100.00;96984.84;1732630;83;21009;-74
2022/04/19 02:15:37;;;;;;;7.50;5.20;;;;;;;4.62;100.00;96983.50;1733012;81;21057;-73
2022/04/19 02:18:14;;;;;;;9.13;5.20;;;;;;;4.62;100.00;96978.64;1732902;81;21034;-73
2022/04/19 02:20:44;;;;;;;7.47;5.00;;;;;;;4.62;100.00;96962.59;1733021;81;21045;-73
2022/04/19 02:23:10;;;;;;;6.70;4.80;;;;;;;4.62;100.00;96951.39;1732724;82;21538;-73
2022/04/19 02:25:37;;;;;;;9.63;5.10;;;;;;;4.64;100.00;96946.64;1732979;83;21064;-73
2022/04/19 02:28:10;;;;;;;8.53;5.00;;;;;;;4.65;100.00;96955.48;1741630;81;21025;-73
2022/04/19 02:30:38;;;;;;;6.40;4.43;;;;;;;4.65;100.00;96952.28;1759043;80;21041;-74
2022/04/19 02:33:07;;;;;;;6.90;4.83;;;;;;;4.66;100.00;96953.13;1752228;81;21052;-73
2022/04/19 02:35:37;;;;;;;6.43;4.27;;;;;;;4.65;100.00;96947.46;1733249;81;21542;-73
2022/04/19 02:38:06;;;;;;;7.13;4.20;;;;;;;4.67;100.00;96952.08;1732789;83;21041;-72
2022/04/19 02:40:37;;;;;;;7.87;4.47;;;;;;;4.68;100.00;96959.91;1728747;82;21542;-72
2022/04/19 02:43:06;;;;;;;5.80;4.10;;;;;;;4.66;100.00;96967.33;1732867;81;21033;-74
2022/04/19 02:45:34;;;;;;;7.37;4.40;;;;;;;4.67;100.00;96976.17;1732748;81;21077;-74
2022/04/19 02:48:08;;;;;;;6.37;4.40;;;;;;;4.66;100.00;96972.68;1732849;83;21527;-73
2022/04/19 02:50:43;;;;;;;4.93;4.00;;;;;;;4.68;100.00;96961.24;1733325;83;21025;-74
2022/04/19 02:53:12;;;;;;;7.60;4.60;;;;;;;4.69;100.00;96949.52;1733175;81;21017;-73
2022/04/19 02:55:41;;;;;;;6.27;4.30;;;;;;;4.69;100.00;96960.23;1732631;83;21037;-73
2022/04/19 02:58:08;;;;;;;7.80;4.67;;;;;;;4.71;100.00;96966.19;1700250;82;20994;-73
2022/04/19 03:00:39;;;;;;;7.90;4.80;;;;;;;4.70;100.00;96960.52;1732913;81;21041;-72
2022/04/19 03:03:10;;;;;;;7.90;5.40;;;;;;;4.69;100.00;96966.92;1733112;81;21540;-74
2022/04/19 03:05:40;;;;;;;8.87;4.90;;;;;;;4.66;100.00;96965.98;1732663;81;21057;-72
2022/04/19 03:08:09;;;;;;;6.47;4.60;;;;;;;4.64;100.00;96970.73;1732485;83;21072;-73
2022/04/19 03:10:37;;;;;;;7.67;5.00;;;;;;;4.64;100.00;96970.73;1732877;83;21045;-74
2022/04/19 03:13:05;;;;;;;6.97;5.07;;;;;;;4.66;100.00;96969.19;1700254;83;21045;-75
2022/04/19 03:15:37;;;;;;;7.87;5.10;;;;;;;4.67;100.00;96960.92;1732963;83;21038;-73
2022/04/19 03:18:06;;;;;;;10.57;5.30;;;;;;;4.72;100.00;96965.66;1732819;83;21045;-73
2022/04/19 03:20:37;;;;;;;9.10;5.17;;;;;;;4.72;100.00;96952.28;1732949;83;21049;-74
2022/04/19 03:28:51;;;;;;;6.90;4.83;;;;;;;4.77;100.00;96944.97;1676682;86;21071;-73
2022/04/19 03:31:18;;;;;;;6.33;4.70;;;;;;;4.79;100.00;96948.26;1676075;86;21071;-72
2022/04/19 03:33:49;;;;;;;8.63;5.27;;;;;;;4.80;100.00;96952.56;1669185;86;21050;-71
2022/04/19 03:36:17;;;;;;;7.63;5.37;;;;;;;4.83;100.00;96940.91;1696084;85;21573;-73
2022/04/19 03:38:44;;;;;;;10.57;5.60;;;;;;;4.83;100.00;96936.90;1695748;85;21578;-72
2022/04/19 03:41:12;;;;;;;7.23;4.63;;;;;;;4.81;100.00;96941.64;1696245;85;21044;-74
2022/04/19 03:43:41;;;;;;;8.13;5.00;;;;;;;4.82;100.00;96956.69;1695884;83;21104;-74
2022/04/19 03:46:09;;;;;;;7.03;5.40;;;;;;;4.83;100.00;96952.15;1696273;85;21088;-74
2022/04/19 03:48:36;;;;;;;7.30;5.17;;;;;;;4.84;100.00;96946.59;1696482;85;21522;-74
2022/04/19 03:51:04;;;;;;;7.83;5.40;;;;;;;4.84;100.00;96954.63;1696396;83;21068;-73
2022/04/19 03:53:32;;;;;;;7.43;5.13;;;;;;;4.86;100.00;96948.53;1695837;85;21566;-73
2022/04/19 03:56:00;;;;;;;7.90;5.20;;;;;;;4.86;100.00;96947.72;1696098;85;21553;-74
2022/04/19 03:58:27;;;;;;;6.77;5.00;;;;;;;4.86;100.00;96942.37;1696451;85;21048;-72
2022/04/19 04:00:55;;;;;;;6.47;5.00;;;;;;;4.86;100.00;96950.40;1696727;85;21033;-75
2022/04/19 04:03:22;;;;;;;7.40;5.03;;;;;;;4.86;100.00;96948.53;1696588;85;21594;-74
2022/04/19 04:05:50;;;;;;;7.80;4.77;;;;;;;4.92;100.00;96941.51;1694497;85;21128;-72
2022/04/19 04:08:19;;;;;;;7.13;4.83;;;;;;;4.98;100.00;96943.36;1693455;84;21102;-73
2022/04/19 04:10:51;;;;;;;6.93;4.53;;;;;;;4.97;100.00;96944.37;1693344;85;21010;-75
2022/04/19 04:13:20;;;;;;;8.13;4.53;;;;;;;4.97;100.00;96947.05;1693549;85;21494;-74
2022/04/19 04:15:49;;;;;;;8.40;4.50;;;;;;;4.95;100.00;96942.44;1693280;83;21140;-73
2022/04/19 04:18:17;;;;;;;7.77;4.67;;;;;;;4.97;100.00;96945.72;1693439;85;21144;-72
2022/04/19 04:20:47;;;;;;;7.07;4.43;;;;;;;4.99;100.00;96950.87;1701397;80;21029;-73
2022/04/19 04:23:15;;;;;;;6.30;4.40;;;;;;;5.00;100.00;96956.02;1769083;80;21034;-73
2022/04/19 04:25:45;;;;;;;6.93;4.93;;;;;;;4.96;100.00;96962.84;1782020;80;21023;-72
2022/04/19 04:28:15;;;;;;;6.57;4.70;;;;;;;4.95;100.00;96959.84;1775783;80;21048;-72
2022/04/19 04:30:44;;;;;;;9.17;4.53;;;;;;;4.98;100.00;96964.78;1763465;81;20979;-72
2022/04/19 04:33:13;;;;;;;8.00;4.83;;;;;;;4.99;100.00;96969.09;1763543;81;21371;-72
2022/04/19 04:35:40;;;;;;;7.17;4.53;;;;;;;4.97;100.00;96972.50;1715580;83;21069;-72
2022/04/19 04:38:09;;;;;;;7.07;4.60;;;;;;;4.91;100.00;96985.40;1723857;83;21057;-72
2022/04/19 04:40:38;;;;;;;7.97;4.83;;;;;;;4.88;100.00;96984.47;1723890;82;21078;-72
2022/04/19 04:43:07;;;;;;;8.37;4.63;;;;;;;4.91;100.00;96972.02;1721971;83;21065;-73
2022/04/19 04:45:35;;;;;;;8.70;4.97;;;;;;;4.98;100.00;96964.78;1721772;83;21062;-73
2022/04/19 04:50:54;;;;;;;8.77;5.17;;;;;;;5.08;100.00;96953.12;1723856;83;21069;-73
2022/04/19 04:53:22;;;;;;;10.90;5.27;;;;;;;5.06;100.00;96955.16;1721870;82;21526;-74
2022/04/19 04:55:51;;;;;;;9.27;4.97;;;;;;;5.06;100.00;96961.85;1722565;83;21065;-71
2022/04/19 04:58:20;;;;;;;9.10;5.07;;;;;;;5.09;100.00;96962.78;1710094;83;20999;-72
2022/04/19 05:00:47;;;;;;;9.83;5.60;;;;;;;5.10;100.00;96968.98;1712667;83;21057;-71
2022/04/19 05:03:14;;;;;;;8.30;4.90;;;;;;;5.13;100.00;96966.70;1713480;83;21026;-72
2022/04/19 05:05:43;;;;;;;9.60;5.40;;;;;;;5.16;100.00;96972.13;1740148;81;21610;-72
2022/04/19 05:08:12;;;;;;;9.60;5.10;;;;;;;5.16;100.00;96978.83;1757208;81;20995;-72
2022/04/19 05:10:41;;;;;;;10.57;5.60;;;;;;;5.17;100.00;96975.13;1734515;82;21539;-71
2022/04/19 05:13:10;;;;;;;9.00;5.03;;;;;;;5.23;100.00;96963.55;1730941;82;21136;-71
2022/04/19 05:15:39;;;;;;;10.20;5.30;;;;;;;5.26;100.00;96969.84;1734904;82;21066;-71
2022/04/19 05:18:07;;;;;;;10.40;5.93;;;;;;;5.29;100.00;96975.27;1754428;82;21042;-73
2022/04/19 05:20:35;;;;;;;8.27;5.13;;;;;;;5.35;100.00;96978.95;1827958;78;20998;-69
2022/04/19 05:23:02;;;;;;;11.67;6.10;;;;;;;5.40;100.00;96982.66;1826124;79;21061;-71
2022/04/19 05:25:30;;;;;;;16.87;7.63;;;;;;;5.41;100.00;96974.91;1792314;78;21566;-71
2022/04/19 05:27:58;;;;;;;11.73;5.83;;;;;;;5.43;100.00;96972.02;1804511;79;21042;-71
2022/04/19 05:30:26;;;;;;;11.53;5.50;;;;;;;5.49;100.00;96972.52;1781317;80;21015;-71
2022/04/19 05:32:55;;;;;;;11.77;5.83;;;;;;;5.51;100.00;96961.07;1759661;80;21036;-69
2022/04/19 05:35:23;;;;;;;10.83;5.70;;;;;;;5.49;100.00;96945.20;1781718;80;21090;-72
2022/04/19 05:37:51;;;;;;;11.23;5.93;;;;;;;5.50;100.00;96933.95;1781161;80;21610;-71
2022/04/19 05:40:20;;;;;;;26.00;17.20;;;;;;;5.51;100.00;96936.42;1783244;80;21006;-71
2022/04/19 05:42:47;;;;;;;21.13;11.53;;;;;;;5.56;100.00;96923.73;1795019;80;21518;-71
2022/04/19 05:45:14;;;;;;;19.70;10.03;;;;;;;5.61;100.00;96909.66;1753823;82;21066;-72
2022/04/19 05:47:43;;;;;;;14.47;7.77;;;;;;;5.67;100.00;96912.31;1792645;80;21069;-71
2022/04/19 05:50:10;;;;;;;12.57;6.77;;;;;;;5.77;100.00;96911.00;1744195;82;21032;-72
2022/04/19 05:52:37;;;;;;;13.23;7.13;;;;;;;5.83;100.00;96916.33;1735274;82;20999;-70
2022/04/19 05:55:09;;;;;;;12.73;6.47;;;;;;;5.89;100.00;96913.28;1766553;80;21042;-72
2022/04/19 05:57:38;;;;;;;14.27;6.90;;;;;;;5.93;100.00;96901.08;1747573;81;21028;-72
2022/04/19 06:00:08;;;;;;;12.80;6.60;;;;;;;5.94;100.00;96889.32;1751812;82;21050;-73
2022/04/19 06:05:39;;;;;;;14.10;6.97;;;;;;;5.99;100.00;96904.80;1759847;81;21094;-73
2022/04/19 06:08:07;;;;;;;13.57;7.10;;;;;;;5.98;100.00;96918.70;1746965;81;21036;-72
2022/04/19 06:10:35;;;;;;;14.90;7.80;;;;;;;5.95;100.00;96923.16;1746632;81;21493;-72
2022/04/19 06:13:05;;;;;;;15.83;7.27;;;;;;;5.93;100.00;96930.58;1763918;81;21066;-72
2022/04/19 06:15:32;;;;;;;13.13;6.80;;;;;;;5.94;100.00;96924.19;1776679;81;21058;-72
2022/04/19 06:18:00;;;;;;;13.40;7.07;;;;;;;5.99;100.00;96917.69;1779863;81;21120;-74
2022/04/19 06:20:30;;;;;;;11.90;6.50;;;;;;;6.04;100.00;96916.51;1776362;81;21039;-72
2022/04/19 06:22:57;;;;;;;11.03;6.53;;;;;;;6.08;100.00;96923.60;1779782;81;21092;-72
2022/04/19 06:25:28;;;;;;;19.37;9.80;;;;;;;6.12;100.00;96910.05;1779068;80;21595;-73
2022/04/19 06:27:57;;;;;;;15.67;8.27;;;;;;;6.19;100.00;96908.66;1786402;79;21608;-72
2022/04/19 06:30:26;;;;;;;18.50;9.40;;;;;;;6.23;100.00;96906.66;1782685;79;21098;-72
2022/04/19 06:32:53;;;;;;;17.37;8.60;;;;;;;6.28;100.00;96920.74;1811391;79;21481;-73
2022/04/19 06:35:21;;;;;;;16.30;8.13;;;;;;;6.27;100.00;96925.83;1764249;81;21029;-73
2022/04/19 06:37:50;;;;;;;14.97;7.90;;;;;;;6.32;100.00;96922.47;1757644;81;21108;-73
2022/04/19 06:40:21;;;;;;;15.83;8.30;;;;;;;6.36;100.00;96919.13;1757878;81;21068;-72
2022/04/19 06:45:37;;;;;;;13.87;7.07;;;;;;;6.42;100.00;96922.79;1612083;85;21620;-71
2022/04/19 06:48:06;;;;;;;15.87;6.60;;;;;;;6.40;100.00;96912.80;1608267;89;21073;-71
2022/04/19 06:50:36;;;;;;;12.20;6.10;;;;;;;6.38;100.00;96933.14;1609116;89;21115;-71
2022/04/19 06:53:12;;;;;;;13.50;6.63;;;;;;;6.33;100.00;96943.72;1607855;88;21115;-72
2022/04/19 06:55:44;;;;;;;13.53;7.35;;;;;;;6.33;100.00;96930.83;1609394;89;21046;-72
2022/04/19 06:58:13;;;;;;;18.13;9.93;;;;;;;6.30;100.00;96936.09;1609012;89;21061;-71
2022/04/19 07:00:42;;;;;;;15.63;7.57;;;;;;;6.32;100.00;96932.70;1609249;89;21161;-72
2022/04/19 07:03:09;;;;;;;20.43;10.40;;;;;;;6.38;100.00;96935.02;1609275;89;21581;-72
2022/04/19 07:05:54;;;;;;;37.97;20.27;;;;;;;6.42;100.00;96931.66;1601962;88;21135;-70
2022/04/19 07:08:22;;;;;;;19.43;9.33;;;;;;;6.46;100.00;96936.06;1633052;88;21222;-72
2022/04/19 07:10:50;;;;;;;17.07;7.80;;;;;;;6.48;100.00;96929.97;1633919;87;21084;-70
2022/04/19 07:13:32;;;;;;;16.20;8.80;;;;;;;6.46;100.00;96923.98;1629940;88;21057;-72
2022/04/19 07:15:59;;;;;;;15.33;8.87;;;;;;;6.46;100.00;96933.38;1632707;87;21072;-71
2022/04/19 07:18:28;;;;;;;17.03;9.23;;;;;;;6.51;100.00;96925.48;1632899;88;21557;-71
2022/04/19 07:26:45;;;;;;;17.37;9.23;;;;;;;6.57;100.00;96909.84;1607488;89;21828;-70
2022/04/19 07:29:15;;;;;;;15.80;6.90;;;;;;;6.53;100.00;96887.16;1610541;88;21233;-71
2022/04/19 07:31:43;;;;;;;16.10;7.93;;;;;;;6.45;100.00;96886.13;1598901;90;21052;-71
2022/04/19 07:34:13;;;;;;;15.80;6.67;;;;;;;6.36;100.00;96907.05;1597742;89;21082;-70
2022/04/19 07:36:41;;;;;;;13.73;7.47;;;;;;;6.29;100.00;96908.98;1581834;89;21031;-71
2022/04/19 07:39:12;;;;;;;12.77;6.70;;;;;;;6.24;100.00;96901.58;1603694;88;21110;-70
2022/04/19 07:41:47;;;;;;;16.40;7.97;;;;;;;6.22;100.00;96878.17;1656523;83;21026;-71
2022/04/19 07:44:15;;;;;;;13.07;7.20;;;;;;;6.21;100.00;96851.56;1722324;83;21024;-70
2022/04/19 07:46:44;;;;;;;14.93;8.10;;;;;;;6.19;100.00;96853.13;1721889;83;21082;-70
2022/04/19 07:49:11;;;;;;;14.90;8.83;;;;;;;6.18;100.00;96879.67;1747828;82;21491;-71
2022/04/19 07:51:39;;;;;;;11.77;6.33;;;;;;;6.25;100.00;96884.95;1756372;82;21025;-71
2022/04/19 07:54:07;;;;;;;11.27;6.07;;;;;;;6.36;100.00;96874.04;1756171;82;21061;-70
2022/04/19 07:56:36;;;;;;;12.40;6.40;;;;;;;6.43;100.00;96870.77;1756767;82;21049;-72
2022/04/19 07:59:04;;;;;;;13.00;7.20;;;;;;;6.49;100.00;96879.26;1756325;82;21500;-71
2022/04/19 08:01:31;;;;;;;17.87;11.23;;;;;;;6.59;100.00;96882.78;1756094;82;21475;-73
2022/04/19 08:04:00;;;;;;;45.93;40.93;;;;;;;6.71;100.00;96872.10;1725324;82;21034;-72
2022/04/19 08:06:28;;;;;;;15.27;9.03;;;;;;;6.79;100.00;96869.13;1774596;80;21046;-72
2022/04/19 08:08:55;;;;;;;23.00;15.27;;;;;;;6.89;100.00;96862.72;1798542;80;21436;-71
2022/04/19 08:11:26;;;;;;;34.37;28.93;;;;;;;7.01;100.00;96864.94;1798667;80;20966;-71
2022/04/19 08:13:54;;;;;;;21.33;14.57;;;;;;;7.10;100.00;96866.80;1798441;80;21565;-72
2022/04/19 08:16:22;;;;;;;23.10;16.67;;;;;;;7.19;100.00;96861.39;1798747;80;21001;-73
2022/04/19 08:18:51;;;;;;;34.37;24.43;;;;;;;7.29;100.00;96872.93;1798601;80;20958;-73
2022/04/19 08:21:20;;;;;;;60.37;52.47;;;;;;;7.39;100.00;96889.88;1798628;80;21009;-72
2022/04/19 08:23:47;;;;;;;28.00;23.67;;;;;;;7.50;100.00;96890.96;1798363;80;21044;-72
2022/04/19 08:26:18;;;;;;;22.03;14.63;;;;;;;7.57;100.00;96897.06;1798601;80;21543;-73
2022/04/19 08:28:46;;;;;;;21.50;15.50;;;;;;;7.52;100.00;96913.87;1764188;80;21066;-73
2022/04/19 08:31:13;;;;;;;20.60;11.23;;;;;;;7.49;100.00;96926.44;1791284;80;21454;-72
2022/04/19 08:33:41;;;;;;;47.83;19.93;;;;;;;7.52;100.00;96932.69;1793609;80;21033;-73
2022/04/19 08:36:11;;;;;;;23.37;13.00;;;;;;;7.55;100.00;96944.34;1799019;80;21030;-72
2022/04/19 08:38:39;;;;;;;18.67;9.90;;;;;;;7.60;100.00;96953.89;1798982;80;21045;-74
2022/04/19 08:41:08;;;;;;;13.90;7.40;;;;;;;7.66;100.00;96964.26;1798568;80;21001;-72
2022/04/19 08:43:38;;;;;;;10.27;6.07;;;;;;;7.66;100.00;96973.67;1798665;80;21049;-72
2022/04/19 08:46:06;;;;;;;11.57;6.40;;;;;;;7.63;100.00;96986.22;1798481;80;21091;-72
2022/04/19 08:48:38;;;;;;;14.83;8.93;;;;;;;7.62;100.00;96993.20;1798598;80;21060;-71
2022/04/19 08:51:03;;;;;;;17.30;10.77;;;;;;;7.65;100.00;96996.25;1798557;80;21006;-71
2022/04/19 08:59:05;;;;;;;17.27;9.93;;;;;;;7.79;100.00;97035.37;1798579;80;20990;-71
2022/04/19 09:01:35;;;;;;;23.33;11.80;;;;;;;7.70;100.00;97063.62;1798872;80;21016;-72
2022/04/19 09:04:04;;;;;;;21.07;9.73;;;;;;;7.58;100.00;97071.62;1799208;80;21013;-73
2022/04/19 09:06:56;;;;;;;18.33;8.03;;;;;;;7.53;100.00;97090.29;1763802;80;31380;-73
2022/04/19 09:09:27;;;;;;;17.60;8.10;;;;;;;7.48;100.00;97114.33;1788993;80;21608;-74
2022/04/19 09:12:12;;;;;;;13.90;6.70;;;;;;;7.47;100.00;97119.92;1780414;80;21018;-74
2022/04/19 09:15:00;;;;;;;11.97;6.60;;;;;;;7.49;100.00;97127.24;1780123;81;21025;-73
2022/04/19 09:17:33;;;;;;;16.83;7.53;;;;;;;7.54;100.00;97128.74;1752373;82;21058;-75
2022/04/19 09:20:15;;;;;;;14.33;7.80;;;;;;;7.52;100.00;97135.69;1752892;82;21081;-73
2022/04/19 09:22:44;;;;;;;11.37;6.27;;;;;;;7.56;100.00;97152.20;1751920;82;21516;-73
2022/04/19 09:25:16;;;;;;;11.07;5.50;;;;;;;7.57;100.00;97155.20;1751854;82;20987;-73
2022/04/19 09:27:45;;;;;;;11.68;5.95;;;;;;;7.61;100.00;97167.14;1751072;82;21470;-71
2022/04/19 09:30:24;;;;;;;14.43;6.77;;;;;;;7.60;100.00;97171.70;1747110;82;21060;-71
2022/04/19 09:33:20;;;;;;;11.93;7.13;;;;;;;7.65;100.00;97185.00;1747276;82;21040;-74
2022/04/19 09:35:56;;;;;;;10.13;6.13;;;;;;;7.67;100.00;97199.89;1667494;86;21055;-75
2022/04/19 09:38:39;;;;;;;12.03;6.90;;;;;;;7.72;100.00;97193.82;1725040;83;21014;-73
2022/04/19 09:41:28;;;;;;;11.87;7.10;;;;;;;7.75;100.00;97196.08;1725021;83;21109;-76
2022/04/19 09:44:10;;;;;;;13.07;7.20;;;;;;;7.76;100.00;97200.42;1724349;82;21090;-74
2022/04/19 09:46:39;;;;;;;12.90;7.60;;;;;;;7.75;100.00;97209.52;1659218;86;21553;-73
2022/04/19 09:49:08;;;;;;;13.40;7.30;;;;;;;7.57;100.00;97221.89;1663364;85;21076;-73
2022/04/19 09:51:35;;;;;;;10.67;6.33;;;;;;;7.51;100.00;97229.51;1684902;84;21046;-73
2022/04/19 09:54:03;;;;;;;10.27;5.90;;;;;;;7.50;100.00;97241.30;1667890;86;21074;-76
2022/04/19 09:56:37;;;;;;;8.33;5.20;;;;;;;7.51;100.00;97244.30;1654096;87;21085;-73
2022/04/19 09:59:05;;;;;;;11.27;5.90;;;;;;;7.51;100.00;97250.20;1654586;87;21070;-71
2022/04/19 10:09:51;;;;;;;13.60;7.00;;;;;;;7.29;100.00;97265.34;1690631;85;21103;-74
2022/04/19 10:12:20;;;;;;;13.13;6.23;;;;;;;7.30;100.00;97267.53;1693671;85;21055;-73
2022/04/19 10:14:47;;;;;;;14.30;7.20;;;;;;;7.32;100.00;97258.19;1693497;85;21560;-74
2022/04/19 10:17:16;;;;;;;11.53;6.23;;;;;;;7.37;100.00;97246.80;1693470;85;21043;-73
2022/04/19 10:19:44;;;;;;;12.10;6.30;;;;;;;7.40;100.00;97240.95;1693587;85;21064;-74
2022/04/19 10:22:12;;;;;;;12.37;6.90;;;;;;;7.43;100.00;97224.92;1721126;83;21079;-74
2022/04/19 10:24:51;;;;;;;13.50;6.40;;;;;;;7.46;100.00;97241.97;1724269;83;21115;-72
2022/04/19 10:27:19;;;;;;;13.50;6.70;;;;;;;7.49;100.00;97270.59;1724319;83;21047;-71
2022/04/19 10:29:46;;;;;;;12.03;6.67;;;;;;;7.48;100.00;97285.06;1724639;83;21105;-71
2022/04/19 10:32:16;;;;;;;10.70;5.60;;;;;;;7.45;100.00;97299.45;1724666;83;21053;-73
2022/04/19 10:34:44;;;;;;;10.83;6.10;;;;;;;7.43;100.00;97288.11;1700025;83;21035;-72
2022/04/19 10:37:23;;;;;;;10.23;6.20;;;;;;;7.44;100.00;97299.98;1691495;84;21095;-72
2022/04/19 10:40:01;;;;;;;15.20;8.37;;;;;;;7.51;100.00;97303.98;1691145;85;21119;-72
2022/04/19 10:42:37;;;;;;;11.97;7.40;;;;;;;7.55;100.00;97311.37;1703987;78;21564;-72
2022/04/19 10:45:25;;;;;;;25.03;14.60;;;;;;;7.57;100.00;97325.42;1792571;78;21170;-74
2022/04/19 10:47:59;;;;;;;22.20;12.57;;;;;;;7.50;100.00;97327.33;1826072;78;21038;-73
2022/04/19 10:50:34;;;;;;;18.10;10.73;;;;;;;7.40;100.00;97330.52;1822032;78;21049;-72
2022/04/19 10:53:10;;;;;;;18.00;10.77;;;;;;;7.31;100.00;97357.86;1827816;78;20962;-73
2022/04/19 10:55:42;;;;;;;18.10;9.97;;;;;;;7.23;100.00;97367.01;1826568;78;21040;-72
2022/04/19 10:58:21;;;;;;;20.00;10.60;;;;;;;7.11;100.00;97376.26;1782467;80;21022;-73
2022/04/19 11:00:56;;;;;;;21.77;12.63;;;;;;;7.06;100.00;97394.06;1781857;80;21550;-74
2022/04/19 11:03:46;;;;;;;18.03;10.23;;;;;;;7.02;100.00;97385.08;1768137;81;21052;-72
2022/04/19 11:06:33;;;;;;;19.33;11.77;;;;;;;7.02;100.00;97390.45;1763235;81;21072;-74
2022/04/19 11:09:22;;;;;;;34.03;23.50;;;;;;;7.06;100.00;97394.87;1765802;81;21040;-73
2022/04/19 11:11:59;;;;;;;47.43;36.63;;;;;;;7.04;100.00;97403.15;1765296;81;21080;-75
2022/04/19 11:14:36;;;;;;;32.73;24.90;;;;;;;6.94;100.00;97399.27;1762867;81;21016;-71
2022/04/19 11:17:24;;;;;;;22.80;16.37;;;;;;;6.92;100.00;97383.36;1765948;81;21068;-73
2022/04/19 11:20:00;;;;;;;26.10;18.67;;;;;;;6.98;100.00;97389.77;1767131;81;21052;-73
2022/04/19 11:22:30;;;;;;;25.87;19.23;;;;;;;7.05;100.00;97395.94;1717374;82;21047;-71
2022/04/19 11:25:05;;;;;;;39.60;29.02;;;;;;;7.07;100.00;97393.86;1717134;83;21595;-70
2022/04/19 11:27:58;;;;;;;57.90;37.57;;;;;;;7.08;100.00;97386.61;1724825;83;21051;-71
2022/04/19 11:30:27;;;;;;;56.03;37.43;;;;;;;7.04;100.00;97378.97;1722634;83;21110;-72
2022/04/19 11:32:57;;;;;;;54.60;36.63;;;;;;;7.02;100.00;97379.70;1723227;83;21127;-72
2022/04/19 11:37:55;;;;;;;48.83;34.40;;;;;;;6.99;100.00;97419.61;1618034;89;21100;-73
2022/04/19 11:48:50;;;;;;;68.47;43.07;;;;;;;7.12;100.00;97399.41;1542634;93;21132;-71
2022/04/19 11:51:22;;;;;;;56.90;34.43;;;;;;;7.09;100.00;97400.36;1542991;93;21080;-71
2022/04/19 11:53:52;;;;;;;33.97;22.47;;;;;;;7.06;100.00;97398.09;1542661;93;21123;-73
2022/04/19 11:56:21;;;;;;;31.03;18.33;;;;;;;7.04;100.00;97403.67;1543355;93;21159;-72
2022/04/19 11:58:53;;;;;;;21.90;12.40;;;;;;;7.00;100.00;97419.40;1521344;93;21168;-72
2022/04/19 12:01:21;;;;;;;23.60;12.60;;;;;;;6.99;100.00;97419.61;1575071;90;21138;-73
2022/04/19 12:03:49;;;;;;;25.93;14.83;;;;;;;6.96;100.00;97426.77;1563495;92;21150;-74
2022/04/19 12:06:19;;;;;;;29.07;18.27;;;;;;;6.95;100.00;97427.27;1564596;92;21101;-72
2022/04/19 12:08:53;;;;;;;29.60;18.73;;;;;;;6.91;100.00;97427.39;1562098;90;21151;-72
2022/04/19 12:11:29;;;;;;;28.97;17.23;;;;;;;6.84;100.00;97434.65;1560885;92;21105;-71
2022/04/19 12:13:57;;;;;;;25.13;15.33;;;;;;;6.76;100.00;97433.00;1559870;90;21110;-73
2022/04/19 12:16:42;;;;;;;20.20;11.20;;;;;;;6.73;100.00;97442.84;1579284;90;21092;-72
2022/04/19 12:19:12;;;;;;;20.10;9.93;;;;;;;6.76;100.00;97429.49;1591596;87;21049;-71
2022/04/19 12:21:42;;;;;;;21.10;11.57;;;;;;;6.85;100.00;97416.13;1640898;86;21030;-71
2022/04/19 12:24:21;;;;;;;21.93;12.13;;;;;;;6.88;100.00;97420.27;1587476;88;21075;-71
2022/04/19 12:26:51;;;;;;;25.60;13.33;;;;;;;6.87;100.00;97438.76;1634665;88;21572;-75
2022/04/19 12:29:19;;;;;;;20.83;10.67;;;;;;;6.87;100.00;97444.12;1619071;88;21063;-72